Time;durP1;ratioP1;P1;durP2;ratioP2;P2;SDS_P1;SDS_P2;PMS_P1;PMS_P2;Temp;Humidity;BMP_temperature;BMP_pressure;BME280_temperature;BME280_humidity;BME280_pressure;Samples;Min_cycle;Max_cycle;Signal;HPM_P1;HPM_P2
2022/02/16 00:01:10;;;;;;;62.30;38.08;;;;;;;8.52;47.27;95452.44;4953559;29;20235;-72
2022/02/16 00:03:37;;;;;;;55.58;34.47;;;;;;;8.97;46.46;95450.81;4950804;29;20202;-72
2022/02/16 00:06:04;;;;;;;58.50;34.05;;;;;;;9.38;45.57;95456.81;4953595;29;20283;-73
2022/02/16 00:08:31;;;;;;;59.08;33.67;;;;;;;9.34;45.11;95458.28;4952748;29;20695;-73
2022/02/16 00:10:57;;;;;;;49.67;32.72;;;;;;;9.26;45.58;95456.03;4952701;29;20196;-72
2022/02/16 00:13:24;;;;;;;58.92;35.00;;;;;;;9.53;44.82;95423.03;4952552;29;20238;-73
2022/02/16 00:15:51;;;;;;;57.20;34.95;;;;;;;9.75;44.42;95439.66;4953117;29;20683;-72
2022/02/16 00:18:19;;;;;;;57.08;34.47;;;;;;;9.52;45.09;95447.63;4952798;29;20227;-72
2022/02/16 00:20:46;;;;;;;62.75;34.78;;;;;;;9.75;44.58;95434.41;4952382;29;20782;-71
2022/02/16 00:23:13;;;;;;;55.47;34.00;;;;;;;9.77;44.67;95442.81;4952918;29;20203;-72
2022/02/16 00:25:40;;;;;;;58.97;34.13;;;;;;;8.93;46.43;95444.44;4953348;29;20196;-71
2022/02/16 00:28:07;;;;;;;55.53;33.97;;;;;;;8.95;46.32;95434.56;4952766;29;20204;-71
2022/02/16 00:30:34;;;;;;;54.97;33.15;;;;;;;9.29;45.72;95447.75;4952203;29;20230;-71
2022/02/16 00:33:01;;;;;;;57.63;34.13;;;;;;;8.88;46.42;95436.50;4952538;29;20219;-72
2022/02/16 00:35:28;;;;;;;55.80;33.67;;;;;;;8.80;47.29;95441.28;4951659;29;20262;-71
2022/02/16 00:37:54;;;;;;;60.72;34.70;;;;;;;8.67;47.08;95436.31;4952726;29;20239;-72
2022/02/16 00:40:22;;;;;;;59.75;36.25;;;;;;;8.80;46.42;95426.41;4952857;29;20295;-72
2022/02/16 00:42:49;;;;;;;54.10;33.90;;;;;;;8.91;46.67;95443.06;4953014;29;20248;-72
2022/02/16 00:45:16;;;;;;;59.03;35.13;;;;;;;9.29;45.77;95418.97;4952038;29;20845;-73
2022/02/16 00:47:45;;;;;;;54.63;33.45;;;;;;;9.14;46.38;95422.09;4957180;28;20208;-72
2022/02/16 00:50:12;;;;;;;54.33;34.70;;;;;;;9.27;46.56;95428.88;4952322;29;20246;-72
2022/02/16 00:52:40;;;;;;;51.05;34.10;;;;;;;9.55;44.92;95402.69;4934561;29;20215;-71
2022/02/16 00:55:08;;;;;;;57.28;35.10;;;;;;;9.35;45.88;95431.09;4950998;29;20287;-72
2022/02/16 00:57:35;;;;;;;51.45;33.58;;;;;;;9.60;45.72;95428.94;4935068;29;20270;-72
2022/02/16 01:00:04;;;;;;;54.63;33.60;;;;;;;9.66;45.40;95420.94;4952327;29;20210;-72
2022/02/16 01:02:39;;;;;;;51.60;34.22;;;;;;;8.61;47.95;95432.78;4936368;29;20721;-72
2022/02/16 01:05:06;;;;;;;51.42;33.17;;;;;;;9.00;47.14;95432.03;4952990;29;20210;-71
2022/02/16 01:07:35;;;;;;;53.08;32.95;;;;;;;9.61;45.68;95418.25;4952518;29;20261;-73
2022/02/16 01:10:05;;;;;;;51.35;33.20;;;;;;;9.89;44.49;95425.25;4934400;29;20208;-72
2022/02/16 01:12:34;;;;;;;58.20;37.03;;;;;;;9.93;44.28;95405.38;4953323;29;20199;-72
2022/02/16 01:15:01;;;;;;;58.42;35.08;;;;;;;9.90;43.73;95408.50;4937182;29;20250;-72
2022/02/16 01:17:35;;;;;;;61.20;35.88;;;;;;;9.68;44.65;95425.94;4951423;29;20211;-71
2022/02/16 01:20:41;;;;;;;57.50;36.33;;;;;;;9.75;43.95;95418.72;4941335;29;20238;-73
2022/02/16 01:23:11;;;;;;;57.83;34.95;;;;;;;9.41;44.20;95396.16;4934746;29;20770;-72
2022/02/16 01:25:41;;;;;;;55.67;35.28;;;;;;;9.75;43.69;95408.25;4935198;29;20214;-73
2022/02/16 01:28:17;;;;;;;58.50;33.83;;;;;;;9.60;44.40;95415.88;4933659;29;20210;-73
2022/02/16 01:30:44;;;;;;;56.13;35.83;;;;;;;9.30;44.78;95412.72;4950505;29;20207;-73
2022/02/16 01:33:19;;;;;;;57.63;34.85;;;;;;;9.10;44.92;95394.84;4950751;29;20754;-72
2022/02/16 01:35:51;;;;;;;62.63;37.30;;;;;;;9.04;45.32;95391.34;4951619;29;20235;-71
2022/02/16 01:38:19;;;;;;;64.05;37.13;;;;;;;8.73;46.35;95393.59;4934469;29;20200;-72
2022/02/16 01:41:07;;;;;;;57.90;36.80;;;;;;;8.91;45.37;95381.16;4936964;29;20695;-72
2022/02/16 01:43:36;;;;;;;58.42;36.78;;;;;;;9.27;45.19;95389.66;4951048;29;20188;-73
2022/02/16 01:46:05;;;;;;;56.28;36.00;;;;;;;9.28;44.48;95386.00;4935805;29;20199;-71
2022/02/16 01:48:32;;;;;;;59.30;35.42;;;;;;;9.23;44.42;95377.03;4935994;29;20208;-72
2022/02/16 01:50:59;;;;;;;61.83;37.20;;;;;;;8.19;47.27;95394.78;4936134;29;20192;-70
2022/02/16 01:53:38;;;;;;;56.35;36.65;;;;;;;8.29;47.77;95381.97;4936054;29;20568;-71
2022/02/16 01:56:06;;;;;;;58.03;36.10;;;;;;;8.86;46.07;95361.97;4951919;29;20212;-71
2022/02/16 01:58:35;;;;;;;58.90;37.00;;;;;;;8.79;46.58;95350.88;4933182;29;20271;-72
2022/02/16 02:01:23;;;;;;;60.92;35.67;;;;;;;9.06;45.35;95355.31;4952544;29;20734;-71
2022/02/16 02:04:00;;;;;;;62.55;36.58;;;;;;;8.89;45.72;95358.88;4933640;29;20294;-72
2022/02/16 02:06:30;;;;;;;55.78;34.92;;;;;;;8.79;45.88;95340.41;4936017;29;20208;-71
2022/02/16 02:08:58;;;;;;;57.75;36.33;;;;;;;8.91;45.45;95352.41;4935959;29;20195;-71
2022/02/16 02:11:26;;;;;;;53.00;34.47;;;;;;;8.68;45.52;95355.09;4951498;29;20634;-72
2022/02/16 02:14:02;;;;;;;57.05;35.50;;;;;;;8.97;44.87;95338.41;4935772;29;20351;-71
2022/02/16 02:16:55;;;;;;;59.78;36.28;;;;;;;9.17;45.29;95362.31;4944794;29;20231;-72
2022/02/16 02:19:22;;;;;;;58.80;36.30;;;;;;;9.09;45.41;95357.44;4935576;29;20267;-72
2022/02/16 02:21:54;;;;;;;57.17;36.78;;;;;;;9.06;45.23;95347.47;4936004;29;20737;-73
2022/02/16 02:24:21;;;;;;;55.10;35.45;;;;;;;9.13;44.79;95353.34;4934585;29;20679;-72
2022/02/16 02:26:49;;;;;;;60.95;37.30;;;;;;;9.34;44.65;95356.28;4935886;29;20558;-72
2022/02/16 02:29:15;;;;;;;58.22;35.45;;;;;;;8.96;45.32;95362.94;4935398;29;20567;-71
2022/02/16 02:31:53;;;;;;;56.33;36.05;;;;;;;8.92;45.25;95329.69;4935326;29;20296;-71
2022/02/16 02:34:20;;;;;;;59.28;37.83;;;;;;;9.21;45.22;95354.78;4950693;29;20231;-71
2022/02/16 02:36:47;;;;;;;64.70;37.55;;;;;;;9.30;44.75;95352.56;4952497;29;20675;-72
2022/02/16 02:39:14;;;;;;;60.88;35.88;;;;;;;9.13;45.59;95357.75;4949646;29;20301;-73
2022/02/16 02:41:42;;;;;;;56.88;34.90;;;;;;;9.11;44.63;95360.63;4951082;29;20233;-72
2022/02/16 02:44:09;;;;;;;57.97;37.25;;;;;;;8.76;45.99;95352.13;4948923;29;20211;-72
2022/02/16 02:46:37;;;;;;;60.33;36.95;;;;;;;8.70;45.40;95360.91;4933059;29;20206;-73
2022/02/16 02:49:04;;;;;;;67.72;40.03;;;;;;;8.32;46.80;95371.06;4950265;29;20176;-71
2022/02/16 02:51:31;;;;;;;66.25;39.28;;;;;;;7.13;49.02;95366.19;4933785;29;20263;-72
2022/02/16 02:53:58;;;;;;;66.28;41.20;;;;;;;7.42;49.04;95382.81;4950301;29;20204;-73
2022/02/16 02:56:33;;;;;;;63.78;39.05;;;;;;;8.04;47.29;95374.38;4932984;29;20200;-72
2022/02/16 02:59:00;;;;;;;60.55;38.22;;;;;;;7.88;47.68;95372.41;4948891;29;20208;-71
2022/02/16 03:01:28;;;;;;;65.15;40.40;;;;;;;7.91;47.23;95363.34;4933914;29;20608;-71
2022/02/16 03:03:56;;;;;;;64.63;38.22;;;;;;;8.03;47.74;95382.41;4933031;29;20279;-72
2022/02/16 03:06:26;;;;;;;63.50;39.20;;;;;;;6.80;50.44;95354.63;4949382;29;20278;-71
2022/02/16 03:08:54;;;;;;;60.35;37.10;;;;;;;7.86;48.20;95360.66;4948739;29;20563;-71
2022/02/16 03:11:24;;;;;;;57.10;36.85;;;;;;;7.88;48.17;95369.03;4933311;29;20579;-72
2022/02/16 03:13:52;;;;;;;68.22;39.70;;;;;;;7.58;47.58;95331.81;4933003;29;20259;-72
2022/02/16 03:16:27;;;;;;;85.13;47.30;;;;;;;8.00;47.73;95372.44;4933512;29;20196;-71
2022/02/16 03:18:54;;;;;;;79.28;46.95;;;;;;;7.86;47.54;95379.72;4948994;29;20314;-72
2022/02/16 03:21:21;;;;;;;80.80;47.20;;;;;;;8.12;47.43;95363.56;4933422;29;20520;-72
2022/02/16 03:23:49;;;;;;;70.03;41.30;;;;;;;7.94;47.31;95363.69;4948729;29;20271;-71
2022/02/16 03:26:16;;;;;;;69.88;41.50;;;;;;;7.96;47.99;95350.41;4935839;29;20814;-71
2022/02/16 03:28:43;;;;;;;69.60;40.72;;;;;;;8.00;47.56;95357.56;4952194;29;20212;-73
2022/02/16 03:31:17;;;;;;;66.32;38.00;;;;;;;7.96;48.32;95366.88;4956037;29;20206;-71
2022/02/16 03:33:47;;;;;;;57.05;35.97;;;;;;;7.48;49.16;95379.28;4952866;29;20215;-72
2022/02/16 03:36:14;;;;;;;61.58;35.63;;;;;;;7.73;49.14;95376.50;4937179;29;20204;-72
2022/02/16 03:38:44;;;;;;;53.85;34.97;;;;;;;7.86;49.17;95381.50;4937558;29;20196;-72
2022/02/16 03:41:13;;;;;;;54.00;35.90;;;;;;;7.04;50.99;95379.75;4936556;29;20319;-73
2022/02/16 03:43:41;;;;;;;62.97;43.78;;;;;;;6.89;52.00;95377.56;4936489;29;20216;-72
2022/02/16 03:46:08;;;;;;;56.20;34.15;;;;;;;6.41;52.98;95366.31;4936656;29;20212;-71
2022/02/16 03:48:40;;;;;;;55.28;35.22;;;;;;;7.51;50.98;95389.28;4936240;29;20677;-72
2022/02/16 03:51:08;;;;;;;55.42;35.83;;;;;;;7.83;49.35;95376.72;4936551;29;20636;-71
2022/02/16 03:53:37;;;;;;;58.35;36.13;;;;;;;7.19;51.61;95386.16;4936097;29;20196;-72
2022/02/16 03:56:04;;;;;;;58.30;35.53;;;;;;;7.95;50.11;95377.53;4936796;29;20207;-72
2022/02/16 03:58:32;;;;;;;60.10;36.08;;;;;;;7.76;49.62;95357.78;4936477;29;20272;-74
2022/02/16 04:00:59;;;;;;;62.47;36.53;;;;;;;8.03;49.31;95356.31;4951804;29;20256;-71
2022/02/16 04:03:26;;;;;;;60.88;36.65;;;;;;;8.55;48.67;95363.19;4935699;29;20591;-72
2022/02/16 04:05:53;;;;;;;61.13;36.55;;;;;;;7.38;51.47;95349.59;4952234;29;20207;-72
2022/02/16 04:08:21;;;;;;;68.47;41.53;;;;;;;7.22;52.29;95358.06;4935392;29;20737;-71
2022/02/16 04:10:48;;;;;;;67.40;40.67;;;;;;;8.00;50.58;95356.78;4953128;29;20210;-72
2022/02/16 04:13:19;;;;;;;53.45;35.47;;;;;;;8.36;49.01;95356.53;4932350;29;20264;-71
2022/02/16 04:15:47;;;;;;;56.92;36.03;;;;;;;8.38;48.97;95341.44;4932315;29;20212;-71
2022/02/16 04:18:14;;;;;;;57.15;36.20;;;;;;;8.65;48.62;95350.31;4933754;29;20630;-72
2022/02/16 04:20:41;;;;;;;58.92;36.78;;;;;;;8.89;47.37;95338.78;4932507;29;20232;-73
2022/02/16 04:23:12;;;;;;;58.95;35.58;;;;;;;8.56;47.86;95328.22;4932814;29;20250;-71
2022/02/16 04:25:43;;;;;;;58.45;36.35;;;;;;;7.63;50.80;95339.75;4932297;29;20790;-73
2022/02/16 04:28:12;;;;;;;57.15;34.75;;;;;;;7.73;51.02;95353.03;4933475;29;20213;-71
2022/02/16 04:30:40;;;;;;;55.72;35.33;;;;;;;8.46;48.51;95325.41;4931926;29;20224;-72
2022/02/16 04:33:09;;;;;;;52.97;34.97;;;;;;;8.90;47.69;95343.00;4932613;29;20213;-72
2022/02/16 04:35:38;;;;;;;53.65;36.42;;;;;;;9.13;47.12;95340.25;4931882;29;20334;-71
2022/02/16 04:38:08;;;;;;;55.17;34.22;;;;;;;9.13;46.61;95337.66;4931490;29;20208;-71
2022/02/16 04:40:37;;;;;;;57.05;35.20;;;;;;;9.13;46.91;95332.41;4931931;29;20681;-72
2022/02/16 04:43:05;;;;;;;52.83;35.47;;;;;;;9.19;47.16;95326.25;4932023;29;20283;-71
2022/02/16 04:45:34;;;;;;;54.55;35.00;;;;;;;9.11;46.59;95331.84;4931942;29;20208;-72
2022/02/16 04:48:04;;;;;;;52.42;34.75;;;;;;;9.21;47.04;95337.25;4932206;29;20287;-72
2022/02/16 04:50:34;;;;;;;57.97;36.42;;;;;;;9.25;46.76;95323.72;4932136;29;20203;-72
2022/02/16 04:53:06;;;;;;;53.35;34.25;;;;;;;9.23;46.92;95332.56;4931196;29;20219;-72
2022/02/16 04:55:37;;;;;;;57.35;35.72;;;;;;;9.16;47.30;95337.16;4931522;29;20196;-72
2022/02/16 04:58:09;;;;;;;55.47;35.83;;;;;;;9.26;46.56;95340.97;4931991;29;20196;-73
2022/02/16 05:00:36;;;;;;;56.72;38.72;;;;;;;9.03;46.57;95332.22;4930772;29;20694;-73
2022/02/16 05:03:11;;;;;;;62.10;39.17;;;;;;;8.62;46.63;95295.94;4934809;29;20311;-71
2022/02/16 05:05:39;;;;;;;59.85;38.60;;;;;;;8.87;46.78;95327.75;4934579;29;20200;-72
2022/02/16 05:08:05;;;;;;;71.90;46.13;;;;;;;8.97;48.48;95332.38;4943136;29;20591;-72
2022/02/16 05:10:32;;;;;;;83.53;52.78;;;;;;;9.05;48.66;95330.16;4957521;28;20212;-72
2022/02/16 05:13:03;;;;;;;100.32;59.90;;;;;;;8.95;47.32;95330.00;4941530;29;20219;-72
2022/02/16 05:15:30;;;;;;;97.32;58.33;;;;;;;8.96;47.95;95336.81;4943478;29;20255;-71
2022/02/16 05:17:57;;;;;;;99.82;58.38;;;;;;;9.12;49.01;95328.19;4960498;29;20191;-70
2022/02/16 05:20:48;;;;;;;101.78;61.30;;;;;;;8.82;47.78;95321.66;4952893;29;20227;-71
2022/02/16 05:23:16;;;;;;;120.85;66.57;;;;;;;8.89;47.54;95315.25;4955598;29;20223;-72
2022/02/16 05:25:47;;;;;;;115.82;64.43;;;;;;;8.74;47.59;95332.50;4934829;29;20188;-68
2022/02/16 05:28:14;;;;;;;109.07;61.97;;;;;;;8.62;47.16;95335.13;4950116;28;20255;-73
2022/02/16 05:30:41;;;;;;;89.18;53.63;;;;;;;8.53;47.33;95326.06;4933992;29;20758;-71
2022/02/16 05:33:10;;;;;;;87.90;51.42;;;;;;;8.19;47.97;95334.75;4933676;29;20204;-70
2022/02/16 05:35:37;;;;;;;86.63;50.60;;;;;;;8.10;47.95;95331.69;4932906;29;20286;-72
2022/02/16 05:38:04;;;;;;;94.03;50.30;;;;;;;8.19;49.43;95313.88;4939371;29;20206;-71
2022/02/16 05:40:33;;;;;;;81.85;47.38;;;;;;;8.13;48.62;95340.88;4933602;29;20589;-71
2022/02/16 05:43:00;;;;;;;77.35;45.83;;;;;;;8.15;48.24;95344.88;4934410;29;20235;-71
2022/02/16 05:45:30;;;;;;;81.88;46.38;;;;;;;8.38;47.42;95354.50;4932155;29;20220;-71
2022/02/16 05:47:59;;;;;;;95.82;58.20;;;;;;;8.13;47.52;95351.31;4948517;28;20259;-76
2022/02/16 05:50:26;;;;;;;78.22;45.72;;;;;;;8.44;47.78;95353.56;4948022;29;20286;-73
2022/02/16 05:52:53;;;;;;;70.28;43.40;;;;;;;8.29;48.33;95355.06;4932991;29;20218;-70
2022/02/16 05:55:20;;;;;;;74.30;45.42;;;;;;;8.33;47.97;95346.56;4933454;29;20206;-71
2022/02/16 05:57:47;;;;;;;81.82;46.08;;;;;;;8.41;48.04;95333.13;4949585;29;20195;-76
2022/02/16 06:00:15;;;;;;;81.35;46.00;;;;;;;8.42;48.13;95333.94;4934324;29;20196;-73
2022/02/16 06:02:44;;;;;;;86.53;51.67;;;;;;;8.59;47.15;95335.59;4933947;29;20242;-71
2022/02/16 06:05:14;;;;;;;82.95;44.20;;;;;;;8.29;48.50;95334.19;4949675;29;20227;-72
2022/02/16 06:07:43;;;;;;;76.35;43.88;;;;;;;8.00;49.11;95330.69;4933822;29;20231;-72
2022/02/16 06:10:10;;;;;;;70.60;41.97;;;;;;;7.67;49.49;95333.88;4933921;29;20200;-72
2022/02/16 06:12:39;;;;;;;62.72;39.22;;;;;;;8.15;48.68;95338.84;4950140;29;20196;-72
2022/02/16 06:15:08;;;;;;;62.67;40.15;;;;;;;8.44;47.94;95327.47;4933308;29;20323;-71
2022/02/16 06:17:38;;;;;;;68.05;42.17;;;;;;;7.95;48.59;95335.78;4934270;29;20203;-72
2022/02/16 06:20:08;;;;;;;65.05;40.35;;;;;;;8.34;48.01;95339.53;4933280;29;20199;-72
2022/02/16 06:22:35;;;;;;;65.32;40.00;;;;;;;8.41;48.26;95333.13;4933643;29;20223;-71
2022/02/16 06:25:05;;;;;;;71.10;41.13;;;;;;;8.39;48.35;95337.81;4949169;29;20200;-71
2022/02/16 06:27:37;;;;;;;72.82;41.15;;;;;;;8.57;47.55;95334.25;4934264;29;20211;-71
2022/02/16 06:30:07;;;;;;;73.97;44.47;;;;;;;7.40;50.63;95364.00;4933841;29;20609;-70
2022/02/16 06:32:46;;;;;;;74.13;44.25;;;;;;;7.70;50.15;95356.88;4951437;29;20291;-74
2022/02/16 06:35:14;;;;;;;76.10;44.22;;;;;;;8.31;49.46;95364.28;4949359;29;20207;-71
2022/02/16 06:37:41;;;;;;;78.47;45.65;;;;;;;8.26;48.97;95356.34;4934433;29;20210;-71
2022/02/16 06:40:10;;;;;;;115.97;73.22;;;;;;;8.18;48.92;95341.78;4949491;29;20199;-74
2022/02/16 06:42:42;;;;;;;95.22;57.50;;;;;;;8.48;48.13;95354.72;4951419;29;20223;-72
2022/02/16 06:45:14;;;;;;;144.68;94.53;;;;;;;8.69;47.82;95354.06;4949427;29;20207;-74
2022/02/16 06:47:43;;;;;;;97.45;60.80;;;;;;;8.75;47.92;95344.50;4933741;29;20223;-71
2022/02/16 06:50:12;;;;;;;79.22;48.03;;;;;;;9.07;47.38;95359.50;4949300;29;20249;-71
2022/02/16 06:52:43;;;;;;;78.78;48.00;;;;;;;9.23;47.76;95362.38;4933745;29;20676;-73
2022/02/16 06:55:10;;;;;;;78.82;48.35;;;;;;;9.28;47.13;95346.78;4949405;29;20711;-73
2022/02/16 06:57:40;;;;;;;78.10;46.33;;;;;;;9.39;47.55;95366.84;4933710;29;20200;-73
2022/02/16 07:00:10;;;;;;;77.32;47.55;;;;;;;8.93;48.42;95366.03;4950000;28;20246;-74
2022/02/16 07:02:44;;;;;;;78.90;46.78;;;;;;;9.54;46.80;95338.31;4937332;29;20227;-73
2022/02/16 07:05:14;;;;;;;76.57;49.58;;;;;;;9.71;46.98;95333.84;4953037;29;20208;-73
2022/02/16 07:07:43;;;;;;;78.72;48.75;;;;;;;9.68;47.48;95344.81;4937368;29;20311;-72
2022/02/16 07:10:10;;;;;;;87.53;48.17;;;;;;;9.01;48.40;95349.97;4936855;29;20211;-72
2022/02/16 07:12:39;;;;;;;77.57;47.42;;;;;;;9.29;47.79;95335.31;4937833;29;20195;-72
2022/02/16 07:15:13;;;;;;;79.47;48.30;;;;;;;8.31;49.85;95359.03;4938269;29;20267;-71
2022/02/16 07:17:49;;;;;;;131.45;81.22;;;;;;;9.01;48.93;95338.72;4942241;29;20203;-72
2022/02/16 07:20:17;;;;;;;87.20;51.17;;;;;;;8.63;48.69;95336.69;4937133;29;20747;-71
2022/02/16 07:22:46;;;;;;;82.38;48.70;;;;;;;9.40;48.32;95332.59;4954690;29;20270;-71
2022/02/16 07:25:15;;;;;;;74.70;47.08;;;;;;;9.47;48.02;95342.91;4936763;29;20232;-73
2022/02/16 07:28:04;;;;;;;72.97;44.35;;;;;;;9.10;48.85;95332.09;4955902;29;20204;-71
2022/02/16 07:30:32;;;;;;;72.03;44.70;;;;;;;9.88;47.29;95332.03;4937628;29;20291;-74
2022/02/16 07:32:59;;;;;;;68.90;43.72;;;;;;;10.12;46.53;95341.31;4953301;29;20211;-70
2022/02/16 07:35:26;;;;;;;64.10;40.72;;;;;;;10.20;46.39;95293.75;4936831;29;20207;-71
2022/02/16 07:37:55;;;;;;;69.75;42.90;;;;;;;10.24;46.34;95302.72;4936368;29;20208;-72
2022/02/16 07:40:22;;;;;;;63.15;38.58;;;;;;;9.92;46.96;95336.56;4936602;29;20200;-73
2022/02/16 07:42:50;;;;;;;51.67;32.30;;;;;;;9.97;45.96;95333.22;4952669;29;20798;-71
2022/02/16 07:45:37;;;;;;;53.83;32.63;;;;;;;9.99;46.16;95331.16;4942938;29;20287;-70
2022/02/16 07:48:07;;;;;;;51.10;32.05;;;;;;;10.57;44.74;95323.56;4936311;29;20955;-74
2022/02/16 07:50:36;;;;;;;49.75;31.63;;;;;;;10.75;44.58;95314.56;4936374;29;20625;-71
2022/02/16 07:53:38;;;;;;;53.15;32.92;;;;;;;11.19;43.79;95322.13;4933165;29;20223;-73
2022/02/16 07:56:06;;;;;;;49.40;32.47;;;;;;;11.01;44.38;95319.84;4954685;29;20592;-73
2022/02/16 07:58:33;;;;;;;51.70;33.13;;;;;;;10.74;43.94;95313.00;4936323;29;20227;-71
2022/02/16 08:01:02;;;;;;;55.95;33.03;;;;;;;11.14;43.95;95306.34;4953555;29;20625;-73
2022/02/16 08:03:29;;;;;;;53.30;34.27;;;;;;;11.28;43.17;95301.47;4953736;29;20223;-70
2022/02/16 08:05:56;;;;;;;55.50;36.03;;;;;;;11.07;44.07;95303.13;4936295;29;20443;-71
2022/02/16 08:08:25;;;;;;;54.55;34.45;;;;;;;10.74;44.56;95313.00;4935893;29;21076;-71
2022/02/16 08:10:52;;;;;;;54.75;34.10;;;;;;;11.27;44.12;95301.72;4952145;28;21008;-72
2022/02/16 08:13:20;;;;;;;64.80;35.53;;;;;;;11.32;43.82;95299.13;4947697;29;20236;-73
2022/02/16 08:16:07;;;;;;;60.22;37.40;;;;;;;11.41;44.01;95293.19;4933096;29;20543;-70
2022/02/16 08:18:35;;;;;;;71.07;35.57;;;;;;;11.23;43.75;95307.47;4932662;29;20204;-72
2022/02/16 08:21:03;;;;;;;64.87;39.17;;;;;;;11.58;43.35;95303.53;4933120;29;20445;-71
2022/02/16 08:23:46;;;;;;;62.47;39.80;;;;;;;11.75;43.32;95309.50;4948709;29;20499;-70
2022/02/16 08:26:13;;;;;;;71.67;42.57;;;;;;;11.62;43.43;95294.13;4934157;29;20303;-73
2022/02/16 08:28:40;;;;;;;71.47;45.50;;;;;;;11.98;43.07;95293.34;4932381;29;20448;-73
2022/02/16 08:31:07;;;;;;;72.83;46.47;;;;;;;11.93;42.61;95288.06;4933743;29;20444;-72
2022/02/16 08:33:53;;;;;;;76.63;46.50;;;;;;;11.89;43.02;95276.50;4933579;29;20633;-73
2022/02/16 08:36:22;;;;;;;79.37;46.40;;;;;;;11.77;42.74;95294.28;4932404;29;20483;-71
2022/02/16 08:38:49;;;;;;;79.40;47.33;;;;;;;11.81;43.10;95304.00;4933305;29;20440;-70
2022/02/16 08:41:16;;;;;;;73.07;45.87;;;;;;;11.84;43.18;95292.22;4934043;29;20543;-73
2022/02/16 08:43:43;;;;;;;79.73;47.40;;;;;;;12.15;42.81;95288.72;4933239;29;20479;-71
2022/02/16 08:46:10;;;;;;;81.40;47.50;;;;;;;12.35;42.39;95301.97;4933975;29;20477;-73
2022/02/16 08:48:38;;;;;;;85.50;51.07;;;;;;;12.08;43.54;95277.63;4933050;29;20535;-72
2022/02/16 08:51:05;;;;;;;83.40;54.27;;;;;;;12.02;42.95;95279.44;4933793;29;20543;-71
2022/02/16 08:53:32;;;;;;;89.47;59.17;;;;;;;12.32;42.30;95264.91;4933469;29;20527;-71
2022/02/16 08:55:59;;;;;;;86.17;59.03;;;;;;;12.27;43.11;95270.91;4933446;29;20429;-70
2022/02/16 08:58:27;;;;;;;76.30;50.00;;;;;;;12.18;43.67;95272.44;4932789;29;20451;-72
2022/02/16 09:00:55;;;;;;;83.37;48.47;;;;;;;12.19;43.36;95274.00;4933615;29;20524;-72
2022/02/16 09:03:22;;;;;;;78.80;50.67;;;;;;;12.24;43.44;95266.19;4932453;29;21002;-71
2022/02/16 09:05:50;;;;;;;69.30;45.70;;;;;;;12.63;42.94;95270.00;4933742;29;20452;-74
2022/02/16 09:08:17;;;;;;;66.00;44.27;;;;;;;12.81;42.49;95261.63;4940656;29;21038;-72
2022/02/16 09:10:44;;;;;;;63.13;43.60;;;;;;;13.16;41.71;95263.53;4934026;29;20449;-72
2022/02/16 09:13:11;;;;;;;58.70;39.87;;;;;;;12.77;41.77;95268.44;4936156;29;20518;-72
2022/02/16 09:15:38;;;;;;;59.77;38.30;;;;;;;13.33;41.01;95258.03;4951721;29;20997;-71
2022/02/16 09:18:06;;;;;;;54.70;37.57;;;;;;;13.78;40.28;95244.81;4952098;29;20444;-72
2022/02/16 09:20:33;;;;;;;58.03;38.80;;;;;;;13.92;40.16;95248.50;4952087;29;20509;-72
2022/02/16 09:23:00;;;;;;;61.77;38.47;;;;;;;13.90;40.51;95253.25;4952236;28;20483;-71
2022/02/16 09:25:27;;;;;;;51.30;32.20;;;;;;;13.93;39.85;95232.44;4952355;29;20443;-72
2022/02/16 09:27:54;;;;;;;51.90;33.10;;;;;;;14.07;39.95;95249.25;4952231;29;20440;-71
2022/02/16 09:30:29;;;;;;;49.83;33.10;;;;;;;14.26;39.67;95231.00;4951433;29;20455;-74
2022/02/16 09:32:56;;;;;;;48.13;33.17;;;;;;;13.77;40.52;95238.00;4952086;29;20522;-72
2022/02/16 09:35:23;;;;;;;47.80;32.97;;;;;;;13.98;40.06;95242.16;4951499;29;20534;-71
2022/02/16 09:37:52;;;;;;;46.43;32.97;;;;;;;13.80;39.99;95232.19;4952150;29;20439;-72
2022/02/16 09:40:19;;;;;;;61.20;34.50;;;;;;;14.30;39.28;95237.34;4951214;29;20828;-71
2022/02/16 09:42:46;;;;;;;48.77;34.10;;;;;;;14.30;39.65;95213.63;4951761;29;20507;-71
2022/02/16 09:45:14;;;;;;;51.17;34.90;;;;;;;14.46;39.66;95227.50;4951371;29;20439;-73
2022/02/16 09:47:44;;;;;;;54.80;34.23;;;;;;;14.55;39.29;95212.69;4952504;29;20443;-71
2022/02/16 09:50:14;;;;;;;46.53;34.43;;;;;;;14.43;38.91;95217.50;4951244;29;20482;-74
2022/02/16 09:52:42;;;;;;;51.07;33.90;;;;;;;14.27;39.47;95237.88;4951663;29;20486;-73
2022/02/16 09:55:09;;;;;;;51.40;34.70;;;;;;;14.14;39.73;95220.00;4951117;29;20522;-71
2022/02/16 09:57:37;;;;;;;47.37;34.93;;;;;;;14.10;40.22;95226.84;4951798;29;20436;-71
2022/02/16 10:00:07;;;;;;;52.07;35.97;;;;;;;14.18;39.70;95228.91;4951164;29;20446;-72
2022/02/16 10:02:43;;;;;;;48.90;35.23;;;;;;;14.17;39.53;95227.34;4952176;29;20467;-71
2022/02/16 10:05:12;;;;;;;56.07;34.73;;;;;;;14.04;40.05;95220.00;4951393;29;20450;-71
2022/02/16 10:07:41;;;;;;;57.27;36.07;;;;;;;14.25;39.38;95200.41;4951572;29;20447;-74
2022/02/16 10:10:17;;;;;;;52.43;35.97;;;;;;;14.19;39.81;95219.97;4950913;29;20447;-71
2022/02/16 10:12:48;;;;;;;58.80;38.07;;;;;;;13.96;39.83;95220.53;4951721;29;20538;-72
2022/02/16 10:15:17;;;;;;;58.97;35.83;;;;;;;14.02;39.64;95208.94;4950887;29;20432;-72
2022/02/16 10:17:44;;;;;;;52.33;35.53;;;;;;;13.95;39.18;95195.28;4952091;29;20448;-73
2022/02/16 10:20:16;;;;;;;56.77;35.90;;;;;;;14.08;39.50;95208.69;4950971;29;20895;-72
2022/02/16 10:22:56;;;;;;;53.70;35.70;;;;;;;14.03;39.60;95205.28;4951216;29;20554;-73
2022/02/16 10:25:27;;;;;;;56.87;40.67;;;;;;;13.95;40.05;95188.16;4950720;29;20447;-71
2022/02/16 10:28:13;;;;;;;54.57;36.47;;;;;;;13.33;40.66;95190.41;4951038;29;20456;-74
2022/02/16 10:31:01;;;;;;;52.20;36.67;;;;;;;13.93;39.43;95171.03;4950335;29;20451;-72
2022/02/16 10:33:33;;;;;;;58.77;37.40;;;;;;;14.18;39.30;95155.13;4950889;29;20454;-72
2022/02/16 10:36:20;;;;;;;62.67;37.63;;;;;;;13.90;39.38;95163.69;4953684;28;20432;-71
2022/02/16 10:38:59;;;;;;;58.57;36.20;;;;;;;14.17;39.25;95159.63;4954425;29;20949;-71
2022/02/16 10:41:42;;;;;;;57.60;34.80;;;;;;;14.23;38.72;95163.03;4954966;29;20466;-71
2022/02/16 10:44:21;;;;;;;56.67;35.77;;;;;;;14.48;38.84;95149.72;4955560;29;20483;-71
2022/02/16 10:47:00;;;;;;;55.03;34.17;;;;;;;14.57;38.38;95142.81;4956110;29;20446;-75
2022/02/16 10:49:28;;;;;;;49.07;33.27;;;;;;;14.62;38.73;95134.88;4954129;29;20458;-73
2022/02/16 10:52:14;;;;;;;51.93;33.63;;;;;;;14.80;38.11;95130.78;4954799;29;20555;-72
2022/02/16 10:54:52;;;;;;;55.93;32.50;;;;;;;14.55;37.69;95130.94;4954331;29;20447;-73
2022/02/16 10:57:20;;;;;;;47.67;31.53;;;;;;;14.54;37.89;95121.47;4937711;29;20556;-73
2022/02/16 10:59:47;;;;;;;46.77;32.43;;;;;;;14.50;38.12;95110.69;4956280;29;20454;-73
2022/02/16 11:02:18;;;;;;;55.27;32.53;;;;;;;14.91;38.51;95109.31;4955545;29;20502;-72
2022/02/16 11:04:47;;;;;;;48.90;32.93;;;;;;;15.12;38.46;95092.25;4954047;29;20478;-73
2022/02/16 11:07:22;;;;;;;49.43;33.07;;;;;;;15.09;37.90;95103.34;4954721;29;21068;-73
2022/02/16 11:09:57;;;;;;;52.13;35.40;;;;;;;14.98;37.96;95091.31;4953517;29;20563;-72
2022/02/16 11:12:24;;;;;;;50.70;33.27;;;;;;;14.78;38.16;95083.56;4954621;29;20450;-71
2022/02/16 11:14:53;;;;;;;61.00;37.27;;;;;;;14.86;37.98;95093.53;4953867;29;20475;-72
2022/02/16 11:17:24;;;;;;;56.50;34.93;;;;;;;15.24;37.31;95078.66;4953753;29;20439;-74
2022/02/16 11:20:22;;;;;;;61.00;37.50;;;;;;;15.20;38.39;95083.72;4954152;29;20475;-71
2022/02/16 11:22:54;;;;;;;54.70;33.63;;;;;;;15.31;37.62;95078.34;4954320;29;20438;-72
2022/02/16 11:25:27;;;;;;;47.07;33.87;;;;;;;15.38;37.83;95078.81;4953744;29;20435;-73
2022/02/16 11:27:55;;;;;;;54.83;35.73;;;;;;;15.57;36.96;95069.09;4952870;29;20447;-73
2022/02/16 11:30:34;;;;;;;45.80;33.30;;;;;;;15.53;37.65;95066.22;4953535;29;20989;-71
2022/02/16 11:33:20;;;;;;;51.60;34.50;;;;;;;15.65;36.47;95060.56;4954739;29;20477;-73
2022/02/16 11:35:52;;;;;;;62.93;35.27;;;;;;;15.65;36.67;95061.34;4954381;29;20447;-74